createdAt,value
2018-05-15T00:00:49.039Z,8.17
2018-05-15T00:03:17.154Z,7.27
2018-05-15T00:05:45.275Z,7.40
2018-05-15T00:08:13.520Z,8.13
2018-05-15T00:10:41.632Z,7.63
2018-05-15T00:13:09.776Z,7.37
2018-05-15T00:15:37.896Z,6.97
2018-05-15T00:18:06.003Z,7.53
2018-05-15T00:20:34.129Z,7.50
2018-05-15T00:23:02.238Z,7.30
2018-05-15T00:25:30.338Z,7.80
2018-05-15T00:27:58.466Z,6.80
2018-05-15T00:30:26.575Z,7.73
2018-05-15T00:32:54.686Z,7.07
2018-05-15T00:35:22.806Z,7.50
2018-05-15T00:37:50.919Z,6.87
2018-05-15T00:40:19.315Z,6.63
2018-05-15T00:42:47.438Z,6.73
2018-05-15T00:45:15.545Z,6.80
2018-05-15T00:47:43.655Z,6.90
2018-05-15T00:50:11.790Z,7.10
2018-05-15T00:52:39.887Z,6.80
2018-05-15T00:55:20.012Z,6.73
2018-05-15T00:57:48.132Z,7.13
2018-05-15T01:00:16.243Z,6.13
2018-05-15T01:02:44.628Z,6.80
2018-05-15T01:05:12.741Z,6.90
2018-05-15T01:07:40.879Z,7.10
2018-05-15T01:10:09.006Z,6.90
2018-05-15T01:12:37.133Z,7.30
2018-05-15T01:15:05.261Z,7.10
2018-05-15T01:17:33.397Z,7.83
2018-05-15T01:20:01.520Z,6.80
2018-05-15T01:22:29.615Z,6.50
2018-05-15T01:24:57.752Z,6.60
2018-05-15T01:27:25.886Z,6.20
2018-05-15T01:29:54.008Z,6.27
2018-05-15T01:32:22.288Z,6.17
2018-05-15T01:34:50.397Z,5.80
2018-05-15T01:37:18.523Z,6.00
2018-05-15T01:39:46.657Z,6.40
2018-05-15T01:42:14.777Z,6.20
2018-05-15T01:44:43.713Z,5.73
2018-05-15T01:47:11.881Z,5.27
2018-05-15T01:49:40.016Z,5.90
2018-05-15T01:52:08.148Z,6.20
2018-05-15T01:54:36.422Z,6.00
2018-05-15T01:57:04.560Z,6.00
2018-05-15T01:59:32.678Z,5.83
2018-05-15T02:02:00.813Z,6.27
2018-05-15T02:04:28.915Z,6.33
2018-05-15T02:06:57.048Z,6.43
2018-05-15T02:09:25.191Z,6.63
2018-05-15T02:11:53.315Z,6.27
2018-05-15T02:14:21.446Z,5.80
2018-05-15T02:16:49.551Z,5.83
2018-05-15T02:19:17.692Z,5.37
2018-05-15T02:21:45.820Z,5.93
2018-05-15T02:24:13.960Z,5.80
2018-05-15T02:26:42.078Z,6.03
2018-05-15T02:29:10.197Z,6.30
2018-05-15T02:31:38.345Z,6.67
2018-05-15T02:34:06.471Z,6.30
2018-05-15T02:36:34.589Z,6.13
2018-05-15T02:39:02.696Z,6.33
2018-05-15T02:41:30.829Z,6.30
2018-05-15T02:43:58.934Z,6.07
2018-05-15T02:46:27.894Z,5.80
2018-05-15T02:48:55.988Z,5.90
2018-05-15T02:51:24.137Z,5.67
2018-05-15T02:53:52.277Z,6.47
2018-05-15T02:56:20.389Z,6.30
2018-05-15T02:58:48.518Z,5.87
2018-05-15T03:01:17.050Z,6.23
2018-05-15T03:03:45.198Z,6.50
2018-05-15T03:06:13.319Z,6.53
2018-05-15T03:08:41.443Z,6.30
2018-05-15T03:11:09.556Z,6.40
2018-05-15T03:13:37.686Z,6.67
2018-05-15T03:16:05.809Z,6.30
2018-05-15T03:18:33.938Z,6.70
2018-05-15T03:21:02.058Z,6.50
2018-05-15T03:23:30.174Z,6.53
2018-05-15T03:25:58.315Z,6.63
2018-05-15T03:28:26.434Z,6.33
2018-05-15T03:30:54.570Z,6.60
2018-05-15T03:33:22.683Z,6.50
2018-05-15T03:35:50.804Z,6.10
2018-05-15T03:38:18.948Z,6.27
2018-05-15T03:40:47.070Z,7.23
2018-05-15T03:43:15.172Z,6.90
2018-05-15T03:45:43.318Z,6.73
2018-05-15T03:48:11.433Z,6.43
2018-05-15T03:50:39.565Z,6.87
2018-05-15T03:53:07.694Z,6.70
2018-05-15T03:55:35.813Z,6.90
2018-05-15T03:58:04.076Z,6.97
2018-05-15T04:00:47.863Z,6.80
2018-05-15T04:03:27.789Z,7.53
2018-05-15T04:06:07.777Z,6.57
2018-05-15T04:08:35.916Z,7.60
2018-05-15T04:11:04.210Z,6.73
2018-05-15T04:13:32.265Z,7.50
2018-05-15T04:16:00.392Z,7.53
2018-05-15T04:18:28.502Z,7.57
2018-05-15T04:20:56.637Z,7.50
2018-05-15T04:23:24.764Z,7.53
2018-05-15T04:25:52.885Z,7.77
2018-05-15T04:28:21.083Z,8.07
2018-05-15T04:30:49.161Z,7.53
2018-05-15T04:33:17.293Z,7.17
2018-05-15T04:35:45.432Z,7.97
2018-05-15T04:38:13.579Z,7.63
2018-05-15T04:40:42.191Z,7.40
2018-05-15T04:43:10.383Z,7.87
2018-05-15T04:45:38.509Z,7.50
2018-05-15T04:48:06.652Z,7.60
2018-05-15T04:50:34.787Z,7.13
2018-05-15T04:53:02.919Z,8.33
2018-05-15T04:55:34.054Z,7.80
2018-05-15T04:58:02.203Z,7.57
2018-05-15T05:00:30.323Z,7.60
2018-05-15T05:02:58.450Z,7.90
2018-05-15T05:05:26.566Z,8.20
2018-05-15T05:07:54.707Z,8.17
2018-05-15T05:10:22.850Z,8.20
2018-05-15T05:12:50.968Z,8.53
2018-05-15T05:15:19.112Z,7.90
2018-05-15T05:17:47.233Z,7.80
2018-05-15T05:20:15.372Z,8.47
2018-05-15T05:22:43.500Z,8.60
2018-05-15T05:25:11.607Z,8.13
2018-05-15T05:27:39.749Z,8.10
2018-05-15T05:30:07.868Z,8.67
2018-05-15T05:32:36.011Z,8.47
2018-05-15T05:35:04.152Z,8.93
2018-05-15T05:37:32.298Z,8.27
2018-05-15T05:40:00.432Z,8.07
2018-05-15T05:42:28.602Z,8.13
2018-05-15T05:44:56.745Z,8.60
2018-05-15T05:47:24.861Z,8.83
2018-05-15T05:49:52.983Z,8.17
2018-05-15T05:52:21.110Z,8.30
2018-05-15T05:54:49.227Z,8.77
2018-05-15T05:57:17.367Z,8.33
2018-05-15T05:59:45.506Z,8.00
2018-05-15T06:02:13.785Z,8.93
2018-05-15T06:04:42.046Z,8.60
2018-05-15T06:07:10.173Z,9.10
2018-05-15T06:09:38.305Z,8.90
2018-05-15T06:12:06.476Z,8.70
2018-05-15T06:14:34.595Z,8.23
2018-05-15T06:17:02.719Z,8.30
2018-05-15T06:19:30.840Z,8.37
2018-05-15T06:21:58.973Z,8.67
2018-05-15T06:24:27.106Z,8.87
2018-05-15T06:26:55.260Z,8.07
2018-05-15T06:29:23.436Z,8.00
2018-05-15T06:31:51.578Z,8.20
2018-05-15T06:34:19.884Z,8.43
2018-05-15T06:36:48.007Z,8.17
2018-05-15T06:39:16.133Z,8.00
2018-05-15T06:41:44.274Z,8.10
2018-05-15T06:44:12.371Z,7.83
2018-05-15T06:46:40.496Z,8.93
2018-05-15T06:49:08.649Z,7.53
2018-05-15T06:51:36.765Z,7.57
2018-05-15T06:54:04.870Z,7.70
2018-05-15T06:56:32.987Z,8.03
2018-05-15T06:59:01.108Z,8.03
2018-05-15T07:01:29.215Z,7.53
2018-05-15T07:03:57.382Z,8.03
2018-05-15T07:06:25.540Z,7.77
2018-05-15T07:08:53.657Z,8.10
2018-05-15T07:11:22.163Z,8.77
2018-05-15T07:13:50.286Z,8.10
2018-05-15T07:16:18.412Z,8.13
2018-05-15T07:18:46.537Z,8.40
2018-05-15T07:21:14.657Z,7.50
2018-05-15T07:23:42.776Z,7.60
2018-05-15T07:26:11.237Z,8.70
2018-05-15T07:28:39.357Z,7.97
2018-05-15T07:31:07.480Z,7.30
2018-05-15T07:33:35.621Z,7.80
2018-05-15T07:36:07.574Z,7.20
2018-05-15T07:38:35.710Z,7.70
2018-05-15T07:41:04.045Z,8.07
2018-05-15T07:43:32.113Z,7.47
2018-05-15T07:46:00.241Z,6.97
2018-05-15T07:48:28.362Z,7.03
2018-05-15T07:50:56.484Z,7.10
2018-05-15T07:53:24.629Z,7.63
2018-05-15T07:55:52.768Z,6.73
2018-05-15T07:58:20.928Z,7.17
2018-05-15T08:00:49.043Z,6.97
2018-05-15T08:03:17.330Z,7.40
2018-05-15T08:05:45.475Z,6.97
2018-05-15T08:08:13.590Z,7.17
2018-05-15T08:10:41.721Z,6.90
2018-05-15T08:13:09.862Z,6.10
2018-05-15T08:15:37.981Z,6.20
2018-05-15T08:18:06.127Z,6.20
2018-05-15T08:20:34.265Z,6.30
2018-05-15T08:23:02.389Z,6.20
2018-05-15T08:25:30.506Z,6.33
2018-05-15T08:27:58.645Z,6.47
2018-05-15T08:30:26.764Z,6.37
2018-05-15T08:32:54.889Z,6.60
2018-05-15T08:35:23.023Z,5.97
2018-05-15T08:37:51.163Z,5.87
2018-05-15T08:40:19.284Z,6.13
2018-05-15T08:42:47.412Z,6.00
2018-05-15T08:45:15.616Z,5.57
2018-05-15T08:47:43.655Z,6.20
2018-05-15T08:50:11.803Z,6.57
2018-05-15T08:52:39.949Z,6.20
2018-05-15T08:55:08.081Z,5.30
2018-05-15T08:57:36.182Z,5.40
2018-05-15T09:00:04.308Z,5.73
2018-05-15T09:02:32.468Z,5.40
2018-05-15T09:05:00.566Z,5.60
2018-05-15T09:07:28.682Z,5.50
2018-05-15T09:09:57.020Z,4.77
2018-05-15T09:12:25.154Z,4.90
2018-05-15T09:14:53.265Z,5.00
2018-05-15T09:17:21.416Z,4.83
2018-05-15T09:19:49.515Z,4.93
2018-05-15T09:22:17.652Z,5.17
2018-05-15T09:24:45.808Z,5.80
2018-05-15T09:27:13.906Z,5.50
2018-05-15T09:29:42.031Z,5.27
2018-05-15T09:32:10.166Z,4.97
2018-05-15T09:34:38.295Z,5.07
2018-05-15T09:37:06.417Z,4.73
2018-05-15T09:39:34.540Z,4.33
2018-05-15T09:42:02.664Z,4.60
2018-05-15T09:44:30.790Z,4.40
2018-05-15T09:46:59.010Z,4.80
2018-05-15T09:49:27.051Z,4.10
2018-05-15T09:51:55.172Z,4.57
2018-05-15T09:54:23.286Z,4.80
2018-05-15T09:56:51.428Z,4.40
2018-05-15T09:59:20.021Z,4.30
2018-05-15T10:01:48.316Z,4.40
2018-05-15T10:04:16.443Z,4.13
2018-05-15T10:06:44.572Z,4.77
2018-05-15T10:09:12.681Z,4.63
2018-05-15T10:11:40.807Z,4.60
2018-05-15T10:14:09.003Z,4.70
2018-05-15T10:16:37.301Z,4.23
2018-05-15T10:19:05.456Z,4.80
2018-05-15T10:21:33.569Z,4.43
2018-05-15T10:24:01.717Z,4.10
2018-05-15T10:26:29.822Z,4.43
2018-05-15T10:28:57.945Z,4.33
2018-05-15T10:31:26.099Z,3.90
2018-05-15T10:33:54.209Z,4.13
2018-05-15T10:36:22.336Z,4.50
2018-05-15T10:38:50.476Z,4.67
2018-05-15T10:41:18.613Z,4.60
2018-05-15T10:43:46.717Z,4.77
2018-05-15T10:46:14.865Z,4.57
2018-05-15T10:48:43.015Z,5.07
2018-05-15T10:51:11.107Z,5.13
2018-05-15T10:53:39.259Z,5.13
2018-05-15T10:56:07.381Z,5.43
2018-05-15T10:58:35.493Z,4.90
2018-05-15T11:01:03.637Z,4.97
2018-05-15T11:03:31.984Z,5.20
2018-05-15T11:06:00.114Z,4.90
2018-05-15T11:08:28.243Z,4.97
2018-05-15T11:10:56.341Z,4.90
2018-05-15T11:13:24.485Z,4.57
2018-05-15T11:15:52.852Z,5.37
2018-05-15T11:18:28.953Z,4.97
2018-05-15T11:21:08.834Z,5.07
2018-05-15T11:23:48.847Z,5.00
2018-05-15T11:26:17.003Z,4.70
2018-05-15T11:28:45.121Z,4.67
2018-05-15T11:31:13.233Z,4.93
2018-05-15T11:33:41.382Z,4.87
2018-05-15T11:36:12.536Z,4.90
2018-05-15T11:38:40.680Z,4.70
2018-05-15T11:41:08.840Z,4.80
2018-05-15T11:43:36.948Z,4.90
2018-05-15T11:46:05.051Z,5.10
2018-05-15T11:48:33.942Z,4.67
2018-05-15T11:51:01.862Z,4.57
2018-05-15T11:53:29.498Z,4.77
2018-05-15T11:55:57.640Z,4.57
2018-05-15T11:58:25.737Z,4.70
2018-05-15T12:00:53.835Z,5.20
2018-05-15T12:03:21.983Z,4.87
2018-05-15T12:05:50.097Z,5.07
2018-05-15T12:08:18.307Z,5.30
2018-05-15T12:10:46.341Z,6.57
2018-05-15T12:13:14.462Z,5.20
2018-05-15T12:15:42.564Z,5.27
2018-05-15T12:18:10.705Z,5.17
2018-05-15T12:20:38.821Z,5.00
2018-05-15T12:23:06.934Z,5.43
2018-05-15T12:25:35.057Z,5.23
2018-05-15T12:28:03.196Z,5.37
2018-05-15T12:30:31.302Z,5.40
2018-05-15T12:32:59.429Z,5.60
2018-05-15T12:35:27.549Z,5.63
2018-05-15T12:37:55.673Z,5.70
2018-05-15T12:40:23.960Z,5.50
2018-05-15T12:42:53.960Z,5.30
2018-05-15T12:45:22.097Z,4.97
2018-05-15T12:47:50.462Z,5.27
2018-05-15T12:50:22.167Z,5.40
2018-05-15T12:52:50.297Z,5.63
2018-05-15T12:55:18.422Z,5.90
2018-05-15T12:57:46.528Z,5.10
2018-05-15T13:00:14.664Z,5.73
2018-05-15T13:02:42.811Z,6.00
2018-05-15T13:05:10.916Z,5.20
2018-05-15T13:07:40.017Z,5.03
2018-05-15T13:10:08.096Z,5.20
2018-05-15T13:12:36.209Z,6.23
2018-05-15T13:15:04.333Z,5.30
2018-05-15T13:17:32.475Z,5.50
2018-05-15T13:20:00.602Z,5.60
2018-05-15T13:22:28.721Z,5.50
2018-05-15T13:24:56.857Z,5.00
2018-05-15T13:27:24.974Z,4.93
2018-05-15T13:29:53.828Z,4.93
2018-05-15T13:32:21.900Z,4.90
2018-05-15T13:34:50.024Z,5.00
2018-05-15T13:37:18.157Z,4.37
2018-05-15T13:39:46.391Z,4.80
2018-05-15T13:42:14.725Z,4.33
2018-05-15T13:44:42.860Z,4.77
2018-05-15T13:47:10.991Z,5.17
2018-05-15T13:49:39.091Z,5.97
2018-05-15T13:52:07.224Z,5.80
2018-05-15T13:54:35.379Z,6.40
2018-05-15T13:57:03.489Z,5.87
2018-05-15T13:59:31.712Z,5.50
2018-05-15T14:02:00.068Z,5.30
2018-05-15T14:04:31.663Z,6.40
2018-05-15T14:06:59.785Z,6.27
2018-05-15T14:09:27.936Z,5.67
2018-05-15T14:11:56.052Z,5.33
2018-05-15T14:14:24.208Z,5.90
2018-05-15T14:16:52.460Z,5.87
2018-05-15T14:19:20.771Z,5.73
2018-05-15T14:21:48.859Z,5.97
2018-05-15T14:24:17.212Z,5.43
2018-05-15T14:26:45.339Z,5.40
2018-05-15T14:29:13.623Z,5.60
2018-05-15T14:31:41.753Z,5.67
2018-05-15T14:34:13.141Z,5.40
2018-05-15T14:36:41.258Z,5.50
2018-05-15T14:39:09.392Z,5.50
2018-05-15T14:41:49.269Z,4.77
2018-05-15T14:44:17.421Z,5.97
2018-05-15T14:46:47.395Z,5.50
2018-05-15T14:49:16.599Z,5.37
2018-05-15T14:51:44.711Z,5.63
2018-05-15T14:54:12.825Z,5.70
2018-05-15T14:56:41.019Z,4.83
2018-05-15T14:59:09.157Z,4.93
2018-05-15T15:01:37.268Z,5.77
2018-05-15T15:04:05.375Z,6.00
2018-05-15T15:06:33.641Z,5.70
2018-05-15T15:09:02.004Z,5.60
2018-05-15T15:11:30.124Z,5.30
2018-05-15T15:13:58.244Z,5.10
2018-05-15T15:16:26.377Z,5.27
2018-05-15T15:18:54.518Z,5.90
2018-05-15T15:21:22.671Z,5.30
2018-05-15T15:23:50.796Z,4.87
2018-05-15T15:26:18.916Z,4.77
2018-05-15T15:28:47.046Z,4.80
2018-05-15T15:31:15.172Z,5.10
2018-05-15T15:33:43.319Z,4.87
2018-05-15T15:36:11.462Z,4.83
2018-05-15T15:38:39.584Z,4.90
2018-05-15T15:41:07.713Z,4.37
2018-05-15T15:43:35.873Z,5.10
2018-05-15T15:46:04.004Z,4.53
2018-05-15T15:48:32.121Z,4.33
2018-05-15T15:51:00.250Z,4.83
2018-05-15T15:53:28.395Z,4.40
2018-05-15T15:55:56.574Z,4.90
2018-05-15T15:58:24.704Z,4.93
2018-05-15T16:00:52.849Z,4.50
2018-05-15T16:03:20.952Z,4.57
2018-05-15T16:05:52.844Z,4.80
2018-05-15T16:08:20.943Z,4.50
2018-05-15T16:10:49.066Z,4.77
2018-05-15T16:13:17.363Z,4.40
2018-05-15T16:15:45.502Z,4.33
2018-05-15T16:18:13.754Z,4.40
2018-05-15T16:20:41.913Z,3.93
2018-05-15T16:23:10.066Z,4.13
2018-05-15T16:25:38.179Z,4.70
2018-05-15T16:28:06.335Z,5.10
2018-05-15T16:30:34.469Z,4.43
2018-05-15T16:33:02.593Z,5.00
2018-05-15T16:35:30.729Z,4.77
2018-05-15T16:37:58.840Z,4.47
2018-05-15T16:40:26.984Z,5.00
2018-05-15T16:42:55.143Z,5.00
2018-05-15T16:45:23.276Z,4.53
2018-05-15T16:47:51.413Z,4.60
2018-05-15T16:50:19.835Z,4.70
2018-05-15T16:52:47.960Z,4.83
2018-05-15T16:55:16.080Z,4.60
2018-05-15T16:57:44.524Z,4.70
2018-05-15T17:00:12.656Z,4.53
2018-05-15T17:02:40.786Z,4.70
2018-05-15T17:05:08.920Z,4.67
2018-05-15T17:07:37.041Z,4.37
2018-05-15T17:10:05.159Z,4.50
2018-05-15T17:12:33.462Z,4.33
2018-05-15T17:15:01.580Z,4.67
2018-05-15T17:17:29.965Z,4.40
2018-05-15T17:19:58.098Z,4.70
2018-05-15T17:22:26.288Z,4.67
2018-05-15T17:24:54.389Z,4.57
2018-05-15T17:27:22.546Z,4.50
2018-05-15T17:29:50.651Z,4.00
2018-05-15T17:32:18.795Z,4.50
2018-05-15T17:34:46.910Z,4.43
2018-05-15T17:37:15.037Z,4.20
2018-05-15T17:39:43.160Z,4.17
2018-05-15T17:42:11.270Z,4.77
2018-05-15T17:44:39.429Z,4.53
2018-05-15T17:47:07.562Z,4.40
2018-05-15T17:49:35.686Z,4.37
2018-05-15T17:52:03.860Z,4.23
2018-05-15T17:54:31.958Z,3.97
2018-05-15T17:57:00.096Z,4.33
2018-05-15T17:59:28.302Z,4.30
2018-05-15T18:01:56.408Z,4.80
2018-05-15T18:04:24.553Z,4.20
2018-05-15T18:06:52.698Z,4.60
2018-05-15T18:09:20.922Z,4.57
2018-05-15T18:11:49.128Z,4.63
2018-05-15T18:14:17.252Z,5.07
2018-05-15T18:16:45.394Z,5.10
2018-05-15T18:19:14.185Z,4.80
2018-05-15T18:21:42.521Z,4.83
2018-05-15T18:24:10.679Z,4.90
2018-05-15T18:26:39.054Z,5.13
2018-05-15T18:29:07.207Z,4.93
2018-05-15T18:31:35.342Z,5.13
2018-05-15T18:34:03.468Z,5.40
2018-05-15T18:36:31.605Z,5.47
2018-05-15T18:38:59.843Z,5.80
2018-05-15T18:41:27.944Z,5.07
2018-05-15T18:43:56.112Z,5.37
2018-05-15T18:46:24.237Z,5.43
2018-05-15T18:48:52.537Z,5.77
2018-05-15T18:51:20.669Z,5.10
2018-05-15T18:53:48.789Z,6.80
2018-05-15T18:56:17.079Z,4.90
2018-05-15T18:58:45.317Z,5.27
2018-05-15T19:01:13.408Z,5.10
2018-05-15T19:03:41.522Z,5.40
2018-05-15T19:06:09.658Z,5.67
2018-05-15T19:08:37.775Z,5.17
2018-05-15T19:11:05.935Z,5.50
2018-05-15T19:13:34.081Z,5.23
2018-05-15T19:16:02.175Z,5.60
2018-05-15T19:18:30.347Z,5.43
2018-05-15T19:20:58.512Z,5.97
2018-05-15T19:23:26.671Z,5.33
2018-05-15T19:25:54.793Z,5.57
2018-05-15T19:28:22.940Z,5.70
2018-05-15T19:30:51.050Z,5.83
2018-05-15T19:33:24.984Z,6.20
2018-05-15T19:35:53.056Z,6.07
2018-05-15T19:38:21.160Z,5.40
2018-05-15T19:40:49.297Z,6.43
2018-05-15T19:43:17.421Z,5.53
2018-05-15T19:45:45.569Z,5.90
2018-05-15T19:48:13.803Z,5.43
2018-05-15T19:50:41.906Z,5.70
2018-05-15T19:53:10.007Z,5.53
2018-05-15T19:55:38.155Z,5.90
2018-05-15T19:58:06.286Z,5.90
2018-05-15T20:00:34.384Z,6.10
2018-05-15T20:03:02.529Z,5.90
2018-05-15T20:05:30.657Z,6.07
2018-05-15T20:07:58.778Z,6.80
2018-05-15T20:10:26.919Z,6.63
2018-05-15T20:12:55.153Z,6.70
2018-05-15T20:15:23.315Z,6.53
2018-05-15T20:17:51.412Z,6.57
2018-05-15T20:20:19.546Z,5.80
2018-05-15T20:22:47.658Z,6.40
2018-05-15T20:25:15.797Z,6.40
2018-05-15T20:27:43.932Z,5.80
2018-05-15T20:30:12.050Z,5.77
2018-05-15T20:32:43.617Z,5.77
2018-05-15T20:35:11.807Z,6.10
2018-05-15T20:37:39.857Z,6.17
2018-05-15T20:40:07.979Z,6.23
2018-05-15T20:42:36.090Z,5.93
2018-05-15T20:45:04.222Z,6.00
2018-05-15T20:47:32.383Z,6.23
2018-05-15T20:50:00.512Z,6.53
2018-05-15T20:52:28.655Z,6.03
2018-05-15T20:54:56.758Z,6.83
2018-05-15T20:57:24.908Z,6.37
2018-05-15T20:59:53.007Z,6.30
2018-05-15T21:02:21.141Z,6.90
2018-05-15T21:04:49.290Z,7.07
2018-05-15T21:07:17.404Z,7.50
2018-05-15T21:09:45.551Z,7.03
2018-05-15T21:12:13.655Z,6.63
2018-05-15T21:14:41.776Z,6.93
2018-05-15T21:17:09.915Z,7.10
2018-05-15T21:19:38.037Z,6.30
2018-05-15T21:22:06.154Z,6.13
2018-05-15T21:24:34.284Z,6.60
2018-05-15T21:27:02.395Z,7.17
2018-05-15T21:29:30.630Z,8.07
2018-05-15T21:31:58.800Z,6.93
2018-05-15T21:34:26.960Z,6.40
2018-05-15T21:36:55.083Z,7.07
2018-05-15T21:39:23.229Z,6.80
2018-05-15T21:41:51.361Z,6.80
2018-05-15T21:44:20.365Z,6.63
2018-05-15T21:46:48.497Z,6.57
2018-05-15T21:49:16.682Z,6.13
2018-05-15T21:51:44.806Z,6.13
2018-05-15T21:54:12.914Z,7.27
2018-05-15T21:56:41.034Z,7.27
2018-05-15T21:59:09.155Z,6.50
2018-05-15T22:01:37.705Z,6.83
2018-05-15T22:04:05.823Z,6.07
2018-05-15T22:06:33.941Z,6.17
2018-05-15T22:09:02.092Z,6.97
2018-05-15T22:11:29.673Z,6.40
2018-05-15T22:14:09.524Z,6.60
2018-05-15T22:16:49.431Z,7.43
2018-05-15T22:19:29.386Z,6.70
2018-05-15T22:22:09.197Z,7.13
2018-05-15T22:24:40.645Z,6.23
2018-05-15T22:27:08.769Z,6.60
2018-05-15T22:29:36.898Z,6.90
2018-05-15T22:32:05.023Z,6.87
2018-05-15T22:34:33.153Z,7.60
2018-05-15T22:37:01.258Z,7.70
2018-05-15T22:39:29.389Z,7.77
2018-05-15T22:41:57.513Z,7.03
2018-05-15T22:44:25.653Z,7.43
2018-05-15T22:46:53.770Z,6.83
2018-05-15T22:49:21.904Z,7.90
2018-05-15T22:51:50.032Z,7.17
2018-05-15T22:54:18.160Z,7.87
2018-05-15T22:56:46.300Z,7.23
2018-05-15T22:59:14.515Z,7.73
2018-05-15T23:01:42.653Z,7.20
2018-05-15T23:04:10.764Z,7.37
2018-05-15T23:06:38.889Z,7.33
2018-05-15T23:09:07.015Z,7.43
2018-05-15T23:11:35.127Z,7.50
2018-05-15T23:14:03.267Z,7.63
2018-05-15T23:16:31.397Z,7.63
2018-05-15T23:18:59.520Z,7.10
2018-05-15T23:21:27.947Z,7.40
2018-05-15T23:23:56.081Z,7.67
2018-05-15T23:26:24.191Z,7.80
2018-05-15T23:28:52.364Z,7.63
2018-05-15T23:31:20.470Z,8.20
2018-05-15T23:33:48.605Z,7.80
2018-05-15T23:36:16.736Z,7.50
2018-05-15T23:38:44.865Z,8.00
2018-05-15T23:41:12.985Z,8.17
2018-05-15T23:43:41.112Z,7.83
2018-05-15T23:46:09.509Z,8.03
2018-05-15T23:48:37.604Z,8.03
2018-05-15T23:51:05.710Z,7.37
2018-05-15T23:53:33.853Z,8.40
2018-05-15T23:56:01.972Z,8.50
2018-05-15T23:58:30.113Z,8.30
